createdAt,value
2018-06-09T00:05:28.884Z,23.00
2018-06-09T00:10:32.986Z,23.00
2018-06-09T00:15:37.022Z,22.90
2018-06-09T00:20:40.991Z,22.80
2018-06-09T00:25:49.059Z,22.60
2018-06-09T00:30:53.019Z,22.60
2018-06-09T00:35:57.036Z,22.70
2018-06-09T00:41:01.084Z,22.70
2018-06-09T00:46:05.051Z,22.70
2018-06-09T00:56:24.097Z,22.60
2018-06-09T01:01:28.071Z,22.60
2018-06-09T01:11:35.851Z,22.50
2018-06-09T01:16:39.818Z,22.50
2018-06-09T01:21:43.803Z,22.50
2018-06-09T01:26:47.743Z,22.40
2018-06-09T01:31:51.696Z,22.30
2018-06-09T01:36:55.679Z,22.20
2018-06-09T01:41:59.660Z,22.10
2018-06-09T01:47:03.636Z,22.20
2018-06-09T01:52:07.656Z,22.10
2018-06-09T01:57:11.644Z,21.90
2018-06-09T02:07:19.260Z,22.00
2018-06-09T02:12:23.685Z,21.80
2018-06-09T02:17:27.665Z,21.90
2018-06-09T02:22:32.366Z,21.80
2018-06-09T02:27:36.317Z,21.70
2018-06-09T02:32:40.323Z,21.80
2018-06-09T02:37:44.291Z,21.80
2018-06-09T02:42:48.217Z,21.80
2018-06-09T02:47:52.179Z,21.70
2018-06-09T02:52:56.160Z,21.60
2018-06-09T02:58:00.136Z,21.70
2018-06-09T03:03:04.116Z,21.70
2018-06-09T03:08:08.145Z,21.70
2018-06-09T03:13:12.188Z,21.70
2018-06-09T03:18:16.157Z,21.60
2018-06-09T03:23:20.146Z,21.60
2018-06-09T03:28:24.152Z,21.60
2018-06-09T03:33:28.137Z,21.60
2018-06-09T03:38:32.100Z,21.60
2018-06-09T03:43:36.058Z,21.60
2018-06-09T03:48:40.015Z,21.50
2018-06-09T03:58:47.620Z,21.50
2018-06-09T04:03:51.591Z,21.50
2018-06-09T04:13:59.207Z,21.60
2018-06-09T04:19:03.127Z,21.70
2018-06-09T04:24:07.123Z,21.70
2018-06-09T04:29:11.122Z,21.70
2018-06-09T04:34:15.140Z,21.70
2018-06-09T04:39:19.104Z,21.70
2018-06-09T04:44:23.099Z,21.80
2018-06-09T04:49:27.144Z,21.80
2018-06-09T04:54:31.931Z,21.80
2018-06-09T04:59:35.901Z,21.90
2018-06-09T05:04:39.879Z,21.80
2018-06-09T05:09:43.903Z,21.90
2018-06-09T05:14:47.911Z,22.20
2018-06-09T05:19:51.882Z,22.40
2018-06-09T05:24:55.859Z,22.80
2018-06-09T05:29:59.871Z,22.90
2018-06-09T05:35:03.851Z,22.90
2018-06-09T05:40:07.853Z,23.10
2018-06-09T05:45:11.855Z,23.50
2018-06-09T05:50:15.834Z,23.80
2018-06-09T06:00:23.444Z,23.90
2018-06-09T06:05:27.458Z,23.80
2018-06-09T06:10:31.465Z,23.70
2018-06-09T06:15:35.516Z,24.00
2018-06-09T06:20:39.480Z,24.20
2018-06-09T06:25:43.456Z,24.20
2018-06-09T06:30:47.401Z,24.20
2018-06-09T06:35:51.369Z,24.60
2018-06-09T06:40:55.368Z,24.60
2018-06-09T06:45:59.326Z,24.80
2018-06-09T06:51:03.430Z,25.10
2018-06-09T06:56:07.462Z,25.40
2018-06-09T07:01:11.446Z,25.40
2018-06-09T07:06:15.427Z,25.30
2018-06-09T07:11:19.395Z,25.40
2018-06-09T07:16:23.458Z,25.30
2018-06-09T07:21:27.475Z,25.50
2018-06-09T07:26:31.465Z,25.60
2018-06-09T07:31:35.459Z,25.90
2018-06-09T07:36:39.424Z,26.40
2018-06-09T07:41:43.399Z,26.80
2018-06-09T07:46:47.364Z,27.20
2018-06-09T07:51:51.338Z,27.40
2018-06-09T07:56:55.331Z,27.20
2018-06-09T08:01:59.328Z,27.10
2018-06-09T08:07:03.296Z,27.10
2018-06-09T08:12:07.323Z,27.30
2018-06-09T08:17:11.368Z,27.70
2018-06-09T08:22:15.355Z,27.80
2018-06-09T08:27:19.346Z,27.80
2018-06-09T08:32:23.344Z,27.60
2018-06-09T08:37:27.363Z,27.70
2018-06-09T08:47:35.745Z,28.30
2018-06-09T08:52:39.737Z,28.50
2018-06-09T08:57:43.722Z,28.70
2018-06-09T09:02:47.777Z,28.50
2018-06-09T09:12:56.159Z,29.20
2018-06-09T09:18:01.179Z,29.70
2018-06-09T09:28:08.900Z,30.60
2018-06-09T09:33:12.883Z,31.40
2018-06-09T09:38:16.879Z,32.00
2018-06-09T09:43:20.849Z,32.70
2018-06-09T09:48:24.832Z,32.10
2018-06-09T09:53:28.804Z,32.30
2018-06-09T09:58:32.820Z,32.40
2018-06-09T10:03:36.783Z,32.10
2018-06-09T10:08:40.787Z,33.70
2018-06-09T10:13:44.780Z,33.80
2018-06-09T10:18:48.812Z,34.70
2018-06-09T10:23:52.782Z,35.40
2018-06-09T10:28:56.766Z,35.70
2018-06-09T10:34:00.729Z,35.20
2018-06-09T10:39:07.010Z,35.20
2018-06-09T10:44:10.986Z,36.10
2018-06-09T10:49:14.975Z,34.60
2018-06-09T10:54:18.943Z,35.40
2018-06-09T10:59:22.972Z,36.30
2018-06-09T11:04:26.931Z,36.30
2018-06-09T11:09:30.976Z,37.50
2018-06-09T11:14:34.995Z,36.60
2018-06-09T11:19:39.114Z,36.30
2018-06-09T11:24:43.076Z,36.70
2018-06-09T11:29:47.072Z,36.70
2018-06-09T11:34:51.001Z,37.80
2018-06-09T11:39:54.992Z,38.40
2018-06-09T11:44:58.992Z,38.60
2018-06-09T11:50:02.960Z,37.90
2018-06-09T11:55:06.955Z,37.70
2018-06-09T12:00:11.023Z,38.00
2018-06-09T12:05:14.992Z,38.80
2018-06-09T12:10:18.959Z,39.30
2018-06-09T12:15:22.951Z,38.10
2018-06-09T12:20:27.115Z,38.70
2018-06-09T12:25:31.087Z,40.00
2018-06-09T12:30:35.042Z,40.30
2018-06-09T12:35:39.062Z,39.00
2018-06-09T12:40:43.047Z,38.30
2018-06-09T12:50:50.664Z,39.30
2018-06-09T12:55:54.674Z,39.00
2018-06-09T13:00:58.676Z,39.00
2018-06-09T13:06:02.634Z,38.80
2018-06-09T13:11:06.615Z,39.40
2018-06-09T13:16:10.627Z,39.20
2018-06-09T13:21:14.614Z,39.60
2018-06-09T13:26:18.601Z,40.90
2018-06-09T13:31:22.590Z,41.10
2018-06-09T13:36:26.559Z,41.30
2018-06-09T13:41:30.544Z,40.70
2018-06-09T13:46:34.479Z,39.70
2018-06-09T13:51:38.443Z,39.50
2018-06-09T13:56:42.425Z,39.30
2018-06-09T14:01:46.394Z,38.80
2018-06-09T14:06:50.372Z,39.50
2018-06-09T14:11:54.319Z,39.20
2018-06-09T14:16:58.290Z,39.40
2018-06-09T14:22:02.282Z,39.30
2018-06-09T14:27:06.247Z,38.60
2018-06-09T14:32:10.240Z,39.30
2018-06-09T14:37:14.222Z,38.60
2018-06-09T14:42:18.185Z,38.80
2018-06-09T14:47:22.215Z,38.90
2018-06-09T14:52:26.176Z,38.70
2018-06-09T14:57:30.200Z,38.30
2018-06-09T15:02:34.245Z,38.30
2018-06-09T15:07:38.183Z,37.80
2018-06-09T15:12:42.269Z,37.90
2018-06-09T15:17:46.242Z,38.00
2018-06-09T15:22:50.201Z,38.10
2018-06-09T15:27:54.187Z,38.20
2018-06-09T15:32:58.171Z,37.90
2018-06-09T15:38:02.157Z,35.70
2018-06-09T15:43:06.132Z,36.20
2018-06-09T15:48:10.115Z,36.30
2018-06-09T15:53:14.108Z,36.10
2018-06-09T15:58:18.115Z,36.20
2018-06-09T16:03:22.111Z,35.30
2018-06-09T16:09:50.599Z,35.30
2018-06-09T16:14:54.633Z,35.80
2018-06-09T16:19:58.582Z,35.60
2018-06-09T16:25:02.586Z,35.60
2018-06-09T16:30:06.575Z,35.40
2018-06-09T16:35:10.562Z,35.40
2018-06-09T16:40:14.511Z,35.20
2018-06-09T16:45:49.375Z,35.20
2018-06-09T16:50:53.366Z,34.80
2018-06-09T16:55:57.339Z,34.60
2018-06-09T17:01:01.401Z,34.40
2018-06-09T17:06:05.348Z,34.00
2018-06-09T17:11:09.367Z,33.30
2018-06-09T17:16:13.384Z,33.20
2018-06-09T17:21:17.310Z,32.90
2018-06-09T17:26:21.281Z,32.50
2018-06-09T17:31:25.292Z,32.30
2018-06-09T17:36:29.287Z,32.10
2018-06-09T17:41:33.251Z,31.90
2018-06-09T17:46:37.223Z,31.70
2018-06-09T17:51:41.218Z,31.30
2018-06-09T17:56:46.004Z,31.20
2018-06-09T18:01:49.955Z,31.10
2018-06-09T18:06:54.031Z,30.70
2018-06-09T18:11:58.931Z,30.70
2018-06-09T18:17:03.988Z,30.70
2018-06-09T18:22:08.968Z,30.50
2018-06-09T18:27:13.044Z,30.10
2018-06-09T18:32:17.024Z,30.20
2018-06-09T18:37:21.019Z,30.10
2018-06-09T18:42:25.144Z,30.00
2018-06-09T18:52:32.717Z,29.60
2018-06-09T18:57:36.733Z,29.60
2018-06-09T19:02:40.728Z,29.60
2018-06-09T19:07:44.759Z,29.60
2018-06-09T19:12:48.759Z,29.40
2018-06-09T19:17:52.787Z,29.30
2018-06-09T19:28:00.751Z,29.00
2018-06-09T19:33:04.711Z,28.90
2018-06-09T19:38:08.699Z,28.90
2018-06-09T19:43:14.242Z,28.80
2018-06-09T19:48:18.242Z,28.80
2018-06-09T19:53:22.248Z,28.80
2018-06-09T19:58:26.221Z,28.70
2018-06-09T20:08:33.831Z,28.40
2018-06-09T20:13:37.843Z,28.40
2018-06-09T20:18:41.826Z,28.20
2018-06-09T20:23:45.850Z,28.10
2018-06-09T20:28:50.665Z,28.10
2018-06-09T20:33:54.660Z,28.00
2018-06-09T20:38:58.666Z,27.90
2018-06-09T20:44:02.762Z,27.90
2018-06-09T20:49:06.862Z,27.80
2018-06-09T20:54:10.863Z,27.80
2018-06-09T20:59:15.749Z,27.60
2018-06-09T21:09:23.416Z,27.20
2018-06-09T21:14:27.405Z,27.10
2018-06-09T21:19:31.392Z,27.00
2018-06-09T21:24:35.848Z,27.00
2018-06-09T21:29:49.013Z,26.80
2018-06-09T21:35:06.130Z,26.70
2018-06-09T21:40:21.335Z,26.60
2018-06-09T21:45:58.028Z,26.60
2018-06-09T21:51:02.086Z,26.60
2018-06-09T21:56:06.055Z,26.60
2018-06-09T22:01:10.932Z,26.50
2018-06-09T22:06:14.906Z,26.40
2018-06-09T22:11:18.924Z,26.40
2018-06-09T22:16:23.558Z,26.30
2018-06-09T22:21:27.542Z,26.20
2018-06-09T22:26:31.512Z,26.30
2018-06-09T22:31:36.880Z,26.20
2018-06-09T22:41:45.259Z,26.00
2018-06-09T22:46:49.215Z,26.00
2018-06-09T22:51:53.147Z,26.10
2018-06-09T22:56:57.099Z,25.90
2018-06-09T23:02:01.153Z,25.80
2018-06-09T23:07:05.116Z,25.70
2018-06-09T23:12:09.099Z,25.80
2018-06-09T23:17:13.093Z,25.70
2018-06-09T23:22:17.131Z,25.70
2018-06-09T23:27:21.062Z,25.50
2018-06-09T23:32:25.212Z,25.70
2018-06-09T23:37:29.161Z,25.70
2018-06-09T23:42:33.099Z,25.50
2018-06-09T23:47:37.095Z,25.50
2018-06-09T23:57:44.709Z,24.60
